Lake Grove, NY (11755)

8:04 AM EDT on October 20, 2014 (GMT -0400)
Lake Grove, NY | Change Station
CLOSE
Current Station
Personal Weather Station
Location: Lake Grove, NY
Elevation: 144 ft
Nearby Weather Stations

Elev 144 ft 40.86 °N, 73.12 °W | Updated 6 seconds ago

Mostly Cloudy
Mostly Cloudy
37.2 °F
Feels Like 37 °F
N
0.0
Wind Variable Wind from NNE
Gusts 0.0 mph

Today
High -- | Low -- °F
--% Chance of Precip.
Yesterday
High -- | Low -- °F
Precip. -- in
7:09 AM 6:04 PM
Waning Crescent, 11% visible
Pressure 30.10 in
Visibility 10.0 miles
Clouds Few 3000 ft
Mostly Cloudy 26000 ft
Windchill 37 °F
Dew Point 36 °F
Humidity 95%
Rainfall 0.00 in
Snow Depth Not available.
UV 0 out of 12
Pollen .90 out of 12
Ozone Good
Flu Activity Sporadic
METAR KISP 201156Z 25004KT 10SM FEW030 BKN260 04/00 A3009 RMK AO2 SLP191 T00390000 10039 20017 53009

More Conditions Fewer Conditions

Pressure 30.10 in
Visibility 10.0 miles
Clouds Few 3000 ft
Mostly Cloudy 26000 ft
Windchill 37 °F
Dew Point 36 °F
Humidity 95%
Rainfall 0.00 in
Snow Depth Not available.
UV 0 out of 12
Pollen .90 out of 12
Ozone Good
Flu Activity Sporadic
METAR KISP 201156Z 25004KT 10SM FEW030 BKN260 04/00 A3009 RMK AO2 SLP191 T00390000 10039 20017 53009

More Conditions Fewer Conditions

10-Day Weather Forecast

Almanac

Astronomy

Oct. 20, 2014 Rise Set
Actual Time 7:09 AM EDT 6:04 PM EDT
Civil Twilight 6:41 AM EDT 6:32 PM EDT
Nautical Twilight 6:09 AM EDT 7:04 PM EDT
Astronomical Twilight 5:37 AM EDT 7:36 PM EDT
Moon 3:53 AM EDT 4:26 PM EDT
Length of Visible Light 11h 51m
Length of Day
10h 55m
Waning Crescent, 11% of the Moon is Illuminated
Today
Waning Crescent
Oct 23
New
Oct 30
First Quarter
Nov 6
Full
Nov 14
Last Quarter

Today's Extremes

State Highs State Lows

Community

WunderPhotos

Upload Photos

1,763,345 photos uploaded!

Nearby

Air Quality

  Air Quality AQ Index Pollutant
Yesterday Good
OZONE
Current Good
OZONE
Monday Good
PM2.5

Snow Depth

Station Depth Elevation
No new snow has been reported.

Earthquake Activity

City Distance Mag. Time & Date
No recent earthquake activity has been reported nearby.
Minimum magnitude displayed is 2.5.

Coastal Water Temperatures

Place Temperature
Kings Point, NY 57.9 °F
Bridgeport, CT 64.0 °F

Nearby Weather Stations